Time;durP1;ratioP1;P1;durP2;ratioP2;P2;SDS_P1;SDS_P2;PMS_P1;PMS_P2;Temp;Humidity;BMP_temperature;BMP_pressure;BME280_temperature;BME280_humidity;BME280_pressure;Samples;Min_cycle;Max_cycle;Signal;HPM_P1;HPM_P2
2024/02/11 00:02:42;;;;;;;0.10;0.10;;;3.30;99.90;;;;;;20682960;28;20077;-46
2024/02/11 00:12:44;;;;;;;0.40;0.20;;;3.30;99.90;;;;;;20687119;28;20036;-46
2024/02/11 00:22:45;;;;;;;0.20;0.10;;;3.40;99.90;;;;;;20676906;28;20073;-45
2024/02/11 00:32:47;;;;;;;0.28;0.10;;;3.40;99.90;;;;;;20682249;28;20079;-49
2024/02/11 00:42:49;;;;;;;0.13;0.00;;;3.40;99.90;;;;;;20681019;28;20130;-45
2024/02/11 00:52:51;;;;;;;0.00;0.00;;;3.30;99.90;;;;;;20680845;28;20041;-41
2024/02/11 01:02:53;;;;;;;31.67;8.27;;;3.30;99.90;;;;;;20681912;28;20087;-43
2024/02/11 01:12:55;;;;;;;0.00;0.00;;;3.20;99.90;;;;;;20677550;28;20514;-46
2024/02/11 01:22:56;;;;;;;5.03;4.57;;;3.30;99.90;;;;;;20677204;28;20068;-46
2024/02/11 01:32:58;;;;;;;0.10;0.00;;;3.20;99.90;;;;;;20658599;28;20098;-47
2024/02/11 01:43:07;;;;;;;0.00;0.00;;;3.20;99.90;;;;;;20674836;28;20110;-46
2024/02/11 01:53:10;;;;;;;0.00;0.00;;;3.20;99.90;;;;;;20675661;28;20147;-43
2024/02/11 02:03:13;;;;;;;0.32;0.00;;;3.20;99.90;;;;;;20677474;28;20743;-46
2024/02/11 02:13:15;;;;;;;0.20;0.00;;;3.10;99.90;;;;;;20672539;28;20060;-46
2024/02/11 02:23:17;;;;;;;5.28;3.00;;;3.20;99.90;;;;;;20671386;28;21096;-43
2024/02/11 02:33:19;;;;;;;0.10;0.00;;;3.10;99.90;;;;;;20675075;28;20041;-46
2024/02/11 02:43:20;;;;;;;0.00;0.00;;;3.00;99.90;;;;;;20670276;28;20076;-47
2024/02/11 02:53:24;;;;;;;0.00;0.00;;;2.90;99.90;;;;;;20671390;28;20122;-45
2024/02/11 03:03:25;;;;;;;0.57;0.57;;;2.90;99.90;;;;;;20671095;28;20104;-47
2024/02/11 03:13:30;;;;;;;0.03;0.03;;;2.90;99.90;;;;;;20668893;28;20114;-46
2024/02/11 03:23:37;;;;;;;0.28;0.28;;;2.90;99.90;;;;;;20668104;28;20088;-45
2024/02/11 03:33:39;;;;;;;0.45;0.45;;;2.90;99.90;;;;;;20657666;28;21336;-47
2024/02/11 03:43:41;;;;;;;0.00;0.00;;;3.00;99.90;;;;;;20687334;28;20060;-46
2024/02/11 03:53:44;;;;;;;1.40;1.30;;;2.90;99.90;;;;;;20684701;28;20088;-44
2024/02/11 04:03:46;;;;;;;0.00;0.00;;;2.90;99.90;;;;;;20684867;28;21118;-46
2024/02/11 04:13:48;;;;;;;0.00;0.00;;;2.90;99.90;;;;;;20681755;28;20545;-44
2024/02/11 04:23:50;;;;;;;0.00;0.00;;;2.90;99.90;;;;;;20682589;28;20079;-48
2024/02/11 04:33:52;;;;;;;0.20;0.20;;;2.80;99.90;;;;;;20683701;28;20142;-47
2024/02/11 04:43:57;;;;;;;0.00;0.00;;;2.80;99.90;;;;;;20683766;28;20625;-44
2024/02/11 04:53:58;;;;;;;0.00;0.00;;;2.90;99.90;;;;;;20683092;28;20041;-47
2024/02/11 05:04:03;;;;;;;2.17;1.17;;;2.90;99.90;;;;;;20681179;28;20068;-44
2024/02/11 05:14:07;;;;;;;2.05;0.00;;;2.90;99.90;;;;;;20682361;28;20033;-44
2024/02/11 05:24:11;;;;;;;0.00;0.00;;;3.00;99.90;;;;;;20679047;28;20049;-45
2024/02/11 05:34:13;;;;;;;0.00;0.00;;;2.90;99.90;;;;;;20679355;28;20041;-43
2024/02/11 05:44:15;;;;;;;0.20;0.00;;;3.00;99.90;;;;;;20678117;28;20080;-50
2024/02/11 05:54:17;;;;;;;0.00;0.00;;;3.00;99.90;;;;;;20676490;28;20036;-44
2024/02/11 06:04:18;;;;;;;0.00;0.00;;;3.00;99.90;;;;;;20676619;28;21112;-44
2024/02/11 06:14:20;;;;;;;0.00;0.00;;;3.00;99.90;;;;;;20675893;28;20056;-44
2024/02/11 06:24:24;;;;;;;0.00;0.00;;;3.00;99.90;;;;;;20672673;28;20514;-43
2024/02/11 06:34:29;;;;;;;0.00;0.00;;;3.10;99.90;;;;;;20672113;28;20044;-47
2024/02/11 06:44:34;;;;;;;0.00;0.00;;;3.20;99.90;;;;;;20668844;28;21184;-48
2024/02/11 06:54:40;;;;;;;0.00;0.00;;;3.20;99.90;;;;;;20668948;28;21030;-46
2024/02/11 07:04:42;;;;;;;1.88;0.00;;;3.30;99.90;;;;;;20667787;28;20063;-44
2024/02/11 07:14:47;;;;;;;0.00;0.00;;;3.40;99.90;;;;;;20666755;28;20588;-46
2024/02/11 07:24:52;;;;;;;0.00;0.00;;;3.50;99.90;;;;;;20669413;28;20089;-45
2024/02/11 07:34:56;;;;;;;0.03;0.00;;;3.70;99.90;;;;;;20648740;28;20653;-44
2024/02/11 07:44:58;;;;;;;0.10;0.00;;;3.80;99.90;;;;;;20666374;28;20201;-48
2024/02/11 07:55:00;;;;;;;0.00;0.00;;;4.00;99.90;;;;;;20665291;28;20601;-47
2024/02/11 08:05:02;;;;;;;1.67;0.00;;;4.40;99.90;;;;;;20667748;28;20588;-46
2024/02/11 08:15:05;;;;;;;0.32;0.00;;;4.80;99.90;;;;;;20664211;28;20064;-48
2024/02/11 08:25:08;;;;;;;0.10;0.00;;;5.00;99.90;;;;;;20677140;28;20084;-45
2024/02/11 08:35:10;;;;;;;2.50;0.90;;;5.00;99.90;;;;;;20682081;28;20078;-44
2024/02/11 08:45:12;;;;;;;0.20;0.10;;;5.10;99.90;;;;;;20679299;28;20863;-46
2024/02/11 08:55:17;;;;;;;0.20;0.10;;;5.40;99.90;;;;;;20677804;28;20057;-46
2024/02/11 09:05:20;;;;;;;0.70;0.10;;;5.50;99.90;;;;;;20675404;28;21189;-41
2024/02/11 09:15:22;;;;;;;0.77;0.20;;;5.40;99.90;;;;;;20678501;28;20153;-44
2024/02/11 09:25:25;;;;;;;0.10;0.10;;;5.40;99.90;;;;;;20678243;28;20088;-46
2024/02/11 09:35:27;;;;;;;0.05;0.05;;;5.50;99.90;;;;;;20656563;28;20076;-45
2024/02/11 09:45:30;;;;;;;0.98;0.10;;;5.60;99.90;;;;;;20674353;28;20068;-46
2024/02/11 09:55:32;;;;;;;0.10;0.10;;;6.00;99.90;;;;;;20666730;28;20114;-44
2024/02/11 10:05:38;;;;;;;0.57;0.10;;;6.40;99.90;;;;;;20671407;28;20061;-48
2024/02/11 10:15:40;;;;;;;0.20;0.13;;;6.40;99.90;;;;;;20653460;28;20118;-48
2024/02/11 10:25:47;;;;;;;0.20;0.20;;;6.10;99.90;;;;;;20669659;28;20158;-48
2024/02/11 10:35:49;;;;;;;0.55;0.22;;;6.00;99.90;;;;;;20668938;28;20057;-48
2024/02/11 10:45:51;;;;;;;0.77;0.40;;;6.30;99.90;;;;;;20672887;28;20087;-43
2024/02/11 10:55:55;;;;;;;1.08;0.60;;;6.30;99.90;;;;;;20669437;28;20049;-45
2024/02/11 11:05:59;;;;;;;9.35;1.02;;;6.10;99.90;;;;;;20667944;28;20736;-44
2024/02/11 11:16:08;;;;;;;51.17;4.25;;;6.10;99.90;;;;;;20649718;28;20573;-43
2024/02/11 11:26:10;;;;;;;24.23;2.40;;;6.00;99.90;;;;;;20586355;28;20116;-49
2024/02/11 11:36:25;;;;;;;3.72;1.65;;;6.10;99.90;;;;;;20589293;28;20758;-47
2024/02/11 11:46:27;;;;;;;1.60;1.40;;;6.10;99.90;;;;;;20584057;28;20142;-45
2024/02/11 11:56:29;;;;;;;1.98;1.75;;;6.10;99.90;;;;;;20592356;28;20080;-46
2024/02/11 12:06:31;;;;;;;1.20;1.10;;;6.10;99.90;;;;;;20599488;28;20158;-47
2024/02/11 12:16:35;;;;;;;2.45;1.90;;;6.00;99.90;;;;;;20599952;28;20147;-42
2024/02/11 12:26:37;;;;;;;52.28;3.03;;;6.00;99.90;;;;;;20672890;28;20146;-47
2024/02/11 12:36:39;;;;;;;82.07;4.65;;;5.70;99.90;;;;;;20680609;28;20111;-46
2024/02/11 12:46:41;;;;;;;22.73;2.25;;;5.60;99.90;;;;;;20679721;28;20069;-45
2024/02/11 12:56:45;;;;;;;74.78;4.47;;;5.60;99.90;;;;;;20679035;28;20142;-46
2024/02/11 13:06:47;;;;;;;1.80;1.58;;;5.60;99.90;;;;;;20658099;28;20064;-46
2024/02/11 13:16:48;;;;;;;258.27;9.27;;;5.40;99.90;;;;;;20677626;28;20122;-43
2024/02/11 13:26:51;;;;;;;476.75;16.75;;;5.20;99.90;;;;;;20676844;28;20140;-44
2024/02/11 13:36:59;;;;;;;338.25;12.95;;;4.90;99.90;;;;;;20676096;28;20797;-43
2024/02/11 13:47:01;;;;;;;1.10;0.82;;;4.70;99.90;;;;;;20674970;28;20736;-46
2024/02/11 13:57:03;;;;;;;11.27;8.32;;;4.70;99.90;;;;;;20670926;28;21216;-43
2024/02/11 14:07:05;;;;;;;0.10;0.10;;;4.30;99.90;;;;;;20668816;28;20118;-47
2024/02/11 14:17:15;;;;;;;7.97;6.85;;;4.20;99.90;;;;;;20671329;28;20069;-42
2024/02/11 14:27:18;;;;;;;0.20;0.20;;;4.00;99.90;;;;;;20669610;28;20076;-41
2024/02/11 14:37:20;;;;;;;6.38;5.82;;;4.00;99.90;;;;;;20665797;28;20129;-48
2024/02/11 14:47:22;;;;;;;0.73;0.70;;;3.90;99.90;;;;;;20651011;28;20154;-48
2024/02/11 14:57:24;;;;;;;0.20;0.10;;;3.80;99.90;;;;;;20667881;28;20141;-48
2024/02/11 15:07:32;;;;;;;0.20;0.20;;;3.70;99.90;;;;;;20668380;28;20072;-44
2024/02/11 15:17:34;;;;;;;0.13;0.13;;;3.70;99.90;;;;;;20662790;28;20086;-46
2024/02/11 15:27:36;;;;;;;6.47;5.85;;;3.80;99.90;;;;;;20666396;28;20148;-48
2024/02/11 15:37:39;;;;;;;0.28;0.17;;;3.90;99.90;;;;;;20680753;28;20561;-42
2024/02/11 15:47:41;;;;;;;35.83;23.42;;;4.00;99.90;;;;;;20683436;28;20119;-43
2024/02/11 15:57:42;;;;;;;4.50;2.83;;;3.90;99.90;;;;;;20678241;28;20266;-41
2024/02/11 16:07:45;;;;;;;4.45;4.05;;;3.70;99.90;;;;;;20679398;28;20103;-43
2024/02/11 16:17:50;;;;;;;0.40;0.40;;;3.70;99.90;;;;;;20678864;28;20073;-42
2024/02/11 16:27:58;;;;;;;0.73;0.50;;;3.60;99.90;;;;;;20664651;28;20076;-41
2024/02/11 16:38:00;;;;;;;56.10;26.00;;;3.60;99.90;;;;;;20679701;28;20036;-45
2024/02/11 16:48:03;;;;;;;0.30;0.25;;;3.60;99.90;;;;;;20680046;28;20122;-47
2024/02/11 16:58:07;;;;;;;1.80;1.65;;;3.50;99.90;;;;;;20678600;28;20111;-42
2024/02/11 17:08:10;;;;;;;0.17;0.13;;;3.50;99.90;;;;;;20678406;28;20146;-53
2024/02/11 17:18:14;;;;;;;0.20;0.20;;;3.50;99.90;;;;;;20679845;28;20081;-46
2024/02/11 17:28:16;;;;;;;0.10;0.10;;;3.40;99.90;;;;;;20680455;28;20137;-42
2024/02/11 17:38:18;;;;;;;84.18;31.67;;;3.40;99.90;;;;;;20501580;28;20784;-45
2024/02/11 17:48:20;;;;;;;0.40;0.30;;;3.60;99.90;;;;;;20501945;28;20176;-45
2024/02/11 17:58:22;;;;;;;7.63;7.07;;;3.50;99.90;;;;;;20503654;28;20149;-42
2024/02/11 18:08:23;;;;;;;0.20;0.10;;;3.50;99.90;;;;;;20639284;28;20789;-42
2024/02/11 18:18:28;;;;;;;16.52;11.10;;;3.50;99.90;;;;;;20673976;28;20076;-42
2024/02/11 18:28:32;;;;;;;0.40;0.10;;;3.60;99.90;;;;;;20672473;28;20174;-43
2024/02/11 18:38:35;;;;;;;0.30;0.28;;;3.60;99.90;;;;;;20652749;28;20144;-45
2024/02/11 18:48:37;;;;;;;0.10;0.10;;;3.50;99.90;;;;;;20497012;28;20230;-41
2024/02/11 18:58:40;;;;;;;12.40;3.13;;;3.50;99.90;;;;;;20495638;28;21073;-42
2024/02/11 19:08:45;;;;;;;0.38;0.10;;;3.70;99.90;;;;;;20498872;28;20172;-44
2024/02/11 19:18:47;;;;;;;0.38;0.22;;;3.80;99.90;;;;;;20519667;28;20764;-43
2024/02/11 19:28:50;;;;;;;0.15;0.10;;;3.70;99.90;;;;;;20668989;28;20080;-40
2024/02/11 19:38:52;;;;;;;0.47;0.00;;;3.70;99.90;;;;;;20651818;28;20069;-43
2024/02/11 19:48:55;;;;;;;0.68;0.50;;;3.80;99.90;;;;;;20667986;28;20084;-44
2024/02/11 19:58:59;;;;;;;0.08;0.08;;;3.80;99.90;;;;;;20649921;28;21726;-45
2024/02/11 20:09:03;;;;;;;0.08;0.08;;;3.80;99.90;;;;;;20491299;28;20185;-44
2024/02/11 20:19:09;;;;;;;0.20;0.10;;;4.00;99.90;;;;;;20502513;28;20086;-41
2024/02/11 20:29:13;;;;;;;1.10;0.00;;;4.00;99.90;;;;;;20507146;28;20188;-42
2024/02/11 20:39:15;;;;;;;0.10;0.10;;;3.90;99.90;;;;;;20643745;28;20753;-44
2024/02/11 20:49:19;;;;;;;0.45;0.10;;;3.80;99.90;;;;;;20680868;28;20664;-45
2024/02/11 20:59:21;;;;;;;0.08;0.00;;;3.80;99.90;;;;;;20679569;28;20167;-43
2024/02/11 21:09:22;;;;;;;0.30;0.30;;;3.60;99.90;;;;;;20679296;28;20128;-43
2024/02/11 21:19:25;;;;;;;0.20;0.13;;;3.50;99.90;;;;;;20676695;28;20088;-42
2024/02/11 21:29:30;;;;;;;3.30;2.00;;;3.50;99.90;;;;;;20678102;28;20076;-44
2024/02/11 21:39:32;;;;;;;13.32;9.93;;;3.30;99.90;;;;;;20677272;28;20091;-43
2024/02/11 21:49:34;;;;;;;3.53;3.20;;;3.20;99.90;;;;;;20677882;28;20064;-45
2024/02/11 21:59:37;;;;;;;2.85;2.65;;;3.20;99.90;;;;;;20675060;28;20572;-45
2024/02/11 22:09:39;;;;;;;0.20;0.13;;;3.10;99.90;;;;;;20671312;28;20893;-44
2024/02/11 22:19:42;;;;;;;0.52;0.50;;;3.00;99.90;;;;;;20673581;28;20599;-45
2024/02/11 22:29:49;;;;;;;0.30;0.22;;;3.00;99.90;;;;;;20656382;28;20115;-46
2024/02/11 22:39:50;;;;;;;0.10;0.10;;;3.10;99.90;;;;;;20671599;28;20076;-43
2024/02/11 22:49:55;;;;;;;0.10;0.10;;;3.00;99.90;;;;;;20670565;28;20064;-42
2024/02/11 22:59:57;;;;;;;21.85;19.83;;;3.10;99.90;;;;;;20672317;28;20490;-46
2024/02/11 23:09:59;;;;;;;2.53;2.35;;;3.20;99.90;;;;;;20668393;28;20090;-42
2024/02/11 23:20:14;;;;;;;0.22;0.10;;;3.40;99.90;;;;;;20669439;28;20145;-42
2024/02/11 23:30:16;;;;;;;0.00;0.00;;;3.20;99.90;;;;;;20670357;28;20708;-47
2024/02/11 23:40:18;;;;;;;1.65;1.55;;;3.20;99.90;;;;;;20668907;28;20077;-45
2024/02/11 23:50:20;;;;;;;0.20;0.10;;;3.30;99.90;;;;;;20656463;28;20158;-45
